Time;durP1;ratioP1;P1;durP2;ratioP2;P2;SDS_P1;SDS_P2;PMS_P1;PMS_P2;Temp;Humidity;BMP_temperature;BMP_pressure;BME280_temperature;BME280_humidity;BME280_pressure;Samples;Min_cycle;Max_cycle;Signal;HPM_P1;HPM_P2
2022/05/15 00:00:44;;;;;;;14.10;5.50;;;14.20;90.40;;;;;;5068841;28;20081;-82
2022/05/15 00:03:15;;;;;;;14.65;5.10;;;14.20;90.50;;;;;;5065607;28;20123;-81
2022/05/15 00:05:42;;;;;;;13.18;4.75;;;14.20;90.70;;;;;;5062659;28;20047;-81
2022/05/15 00:08:09;;;;;;;11.45;6.05;;;14.20;90.80;;;;;;5068373;28;20036;-81
2022/05/15 00:10:35;;;;;;;12.30;5.78;;;14.10;90.80;;;;;;5066584;28;20113;-81
2022/05/15 00:13:01;;;;;;;12.55;5.03;;;14.10;91.00;;;;;;5070596;28;20035;-81
2022/05/15 00:15:27;;;;;;;14.52;7.05;;;14.10;91.10;;;;;;5057230;28;20037;-80
2022/05/15 00:17:52;;;;;;;11.85;5.35;;;14.00;91.30;;;;;;5065094;28;20020;-82
2022/05/15 00:20:18;;;;;;;8.13;4.72;;;14.00;91.40;;;;;;5067944;28;20086;-81
2022/05/15 00:22:43;;;;;;;15.40;6.15;;;14.00;91.40;;;;;;5067494;28;20506;-82
2022/05/15 00:25:09;;;;;;;12.18;5.70;;;14.00;91.50;;;;;;5066028;28;20043;-83
2022/05/15 00:27:35;;;;;;;14.90;5.20;;;13.90;91.40;;;;;;5067322;28;20028;-84
2022/05/15 00:30:00;;;;;;;11.48;5.70;;;13.90;91.50;;;;;;5066478;28;20466;-83
2022/05/15 00:32:26;;;;;;;14.20;4.90;;;13.90;91.70;;;;;;5066762;28;20025;-83
2022/05/15 00:34:51;;;;;;;18.05;6.32;;;13.90;91.90;;;;;;5069558;28;20071;-82
2022/05/15 00:37:17;;;;;;;12.80;5.07;;;13.80;91.90;;;;;;5065569;28;20024;-83
2022/05/15 00:39:42;;;;;;;18.50;5.57;;;13.80;91.90;;;;;;5069062;28;20036;-83
2022/05/15 00:42:09;;;;;;;9.13;4.55;;;13.80;91.90;;;;;;5067793;28;20111;-82
2022/05/15 00:44:35;;;;;;;12.70;5.90;;;13.80;92.00;;;;;;5066163;28;20138;-83
2022/05/15 00:47:00;;;;;;;10.43;4.97;;;13.80;92.00;;;;;;5064233;28;20458;-82
2022/05/15 00:49:26;;;;;;;15.32;5.95;;;13.70;92.00;;;;;;5071391;28;20076;-82
2022/05/15 00:51:58;;;;;;;15.23;5.95;;;13.70;92.20;;;;;;5072140;28;20078;-81
2022/05/15 00:54:45;;;;;;;11.93;6.03;;;13.70;92.20;;;;;;5071613;28;20462;-82
2022/05/15 00:57:18;;;;;;;11.65;5.88;;;13.60;92.30;;;;;;5070701;28;20063;-82
2022/05/15 00:59:55;;;;;;;13.63;6.03;;;13.60;92.40;;;;;;5072033;28;20043;-84
2022/05/15 01:02:22;;;;;;;14.75;7.05;;;13.60;92.60;;;;;;5068889;28;20029;-82
2022/05/15 01:04:48;;;;;;;12.43;6.13;;;13.50;92.70;;;;;;5071352;28;20429;-82
2022/05/15 01:07:14;;;;;;;11.55;5.30;;;13.50;92.90;;;;;;5071761;28;20048;-82
2022/05/15 01:09:40;;;;;;;12.20;5.53;;;13.50;93.00;;;;;;5070310;28;20138;-85
2022/05/15 01:12:06;;;;;;;19.35;6.88;;;13.40;93.00;;;;;;5070166;28;20469;-83
2022/05/15 01:14:32;;;;;;;12.85;5.90;;;13.40;93.00;;;;;;5071091;28;20025;-84
2022/05/15 01:16:57;;;;;;;11.63;5.78;;;13.30;93.00;;;;;;5070879;28;20032;-82
2022/05/15 01:19:36;;;;;;;20.30;6.38;;;13.30;93.10;;;;;;5068869;28;20108;-86
2022/05/15 01:22:04;;;;;;;10.63;5.45;;;13.30;93.20;;;;;;5067686;28;20482;-83
2022/05/15 01:24:29;;;;;;;8.35;5.10;;;13.30;93.20;;;;;;5071403;28;20117;-82
2022/05/15 01:26:56;;;;;;;17.45;5.72;;;13.20;93.30;;;;;;5070401;28;20518;-83
2022/05/15 01:29:33;;;;;;;11.35;5.32;;;13.20;93.50;;;;;;5071150;28;20074;-81
2022/05/15 01:32:00;;;;;;;8.93;4.85;;;13.10;93.30;;;;;;5071816;28;20052;-82
2022/05/15 01:34:26;;;;;;;10.10;5.07;;;13.10;93.40;;;;;;5069443;28;20032;-84
2022/05/15 01:36:52;;;;;;;11.38;5.60;;;13.00;93.50;;;;;;5067735;28;20025;-84
2022/05/15 01:39:18;;;;;;;13.45;6.25;;;13.00;93.60;;;;;;5069910;28;20028;-82
2022/05/15 01:41:43;;;;;;;11.65;5.78;;;12.90;93.70;;;;;;5073497;28;20479;-82
2022/05/15 01:44:09;;;;;;;13.65;5.47;;;12.90;93.90;;;;;;5070805;28;20033;-82
2022/05/15 01:46:35;;;;;;;13.15;6.35;;;12.90;93.90;;;;;;5070237;28;20043;-82
2022/05/15 01:49:02;;;;;;;14.10;5.65;;;12.90;94.00;;;;;;5069765;28;20031;-81
2022/05/15 01:51:28;;;;;;;9.90;5.63;;;12.80;94.10;;;;;;5062160;28;20066;-82
2022/05/15 01:53:53;;;;;;;11.68;5.28;;;12.80;94.10;;;;;;5071282;28;20074;-86
2022/05/15 01:56:19;;;;;;;13.27;6.38;;;12.80;94.20;;;;;;5069508;28;20067;-82
2022/05/15 01:58:45;;;;;;;7.95;4.70;;;12.70;94.40;;;;;;5066171;28;20438;-83
2022/05/15 02:01:10;;;;;;;12.50;5.38;;;12.70;94.50;;;;;;5068334;28;20107;-82
2022/05/15 02:03:36;;;;;;;13.55;5.53;;;12.70;94.50;;;;;;5070914;28;20033;-82
2022/05/15 02:06:03;;;;;;;16.40;5.05;;;12.70;94.50;;;;;;5070461;28;20398;-83
2022/05/15 02:08:31;;;;;;;11.73;5.25;;;12.70;94.50;;;;;;5070389;28;20102;-81
2022/05/15 02:10:57;;;;;;;14.80;5.32;;;12.60;94.50;;;;;;5069385;28;20075;-86
2022/05/15 02:13:22;;;;;;;11.15;5.40;;;12.60;94.50;;;;;;5068937;28;20062;-83
2022/05/15 02:15:48;;;;;;;12.80;5.45;;;12.60;94.60;;;;;;5067465;28;20442;-82
2022/05/15 02:18:13;;;;;;;14.10;5.38;;;12.60;94.60;;;;;;5070334;28;20025;-82
2022/05/15 02:20:39;;;;;;;10.32;5.45;;;12.60;94.60;;;;;;5065077;28;20028;-82
2022/05/15 02:23:05;;;;;;;11.05;4.90;;;12.60;94.70;;;;;;5071052;28;20041;-85
2022/05/15 02:25:31;;;;;;;14.35;5.75;;;12.50;94.70;;;;;;5067936;28;20048;-86
2022/05/15 02:27:58;;;;;;;9.88;5.82;;;12.50;94.90;;;;;;5069677;28;20032;-83
2022/05/15 02:30:24;;;;;;;12.40;6.60;;;12.40;94.90;;;;;;5070476;28;20115;-83
2022/05/15 02:32:50;;;;;;;10.82;5.95;;;12.40;95.00;;;;;;5067481;28;20108;-82
2022/05/15 02:35:17;;;;;;;12.50;5.68;;;12.40;95.00;;;;;;5069984;28;20032;-85
2022/05/15 02:37:44;;;;;;;12.70;5.88;;;12.40;95.10;;;;;;5069641;28;20028;-82
2022/05/15 02:40:12;;;;;;;12.82;5.95;;;12.40;95.10;;;;;;5067887;28;20040;-82
2022/05/15 02:42:38;;;;;;;15.55;6.57;;;12.30;95.00;;;;;;5070014;28;20059;-81
2022/05/15 02:45:05;;;;;;;10.95;6.65;;;12.30;95.10;;;;;;5069116;28;20111;-82
2022/05/15 02:47:31;;;;;;;12.23;5.43;;;12.30;95.20;;;;;;5069198;28;20028;-81
2022/05/15 02:52:41;;;;;;;14.70;6.32;;;12.20;95.30;;;;;;5066725;28;20039;-82
2022/05/15 02:55:06;;;;;;;16.58;6.43;;;12.20;95.40;;;;;;5061634;28;20092;-82
2022/05/15 02:57:32;;;;;;;14.30;6.15;;;12.10;95.40;;;;;;5068778;28;20044;-81
2022/05/15 02:59:58;;;;;;;12.73;6.25;;;12.10;95.40;;;;;;5071031;28;20032;-81
2022/05/15 03:02:23;;;;;;;12.00;5.90;;;12.10;95.50;;;;;;5068610;28;20064;-81
2022/05/15 03:04:49;;;;;;;12.73;6.53;;;12.00;95.50;;;;;;5070802;28;20469;-81
2022/05/15 03:07:15;;;;;;;14.95;6.70;;;12.00;95.60;;;;;;5069353;28;20021;-85
2022/05/15 03:09:41;;;;;;;12.75;6.55;;;12.00;95.70;;;;;;5070752;28;20113;-81
2022/05/15 03:12:07;;;;;;;12.00;6.63;;;12.00;95.70;;;;;;5068615;28;20016;-82
2022/05/15 03:14:32;;;;;;;12.25;7.05;;;11.90;95.70;;;;;;5069330;28;20429;-81
2022/05/15 03:16:58;;;;;;;12.95;7.07;;;11.90;95.80;;;;;;5069217;28;20039;-81
2022/05/15 03:19:24;;;;;;;18.77;6.88;;;11.90;95.90;;;;;;5071776;28;20032;-81
2022/05/15 03:21:49;;;;;;;12.25;6.22;;;11.90;96.00;;;;;;5070901;28;20364;-79
2022/05/15 03:24:15;;;;;;;17.85;8.10;;;11.90;96.00;;;;;;5069740;28;20119;-82
2022/05/15 03:26:44;;;;;;;14.15;6.75;;;11.80;96.00;;;;;;5069580;28;20036;-81
2022/05/15 03:29:10;;;;;;;12.25;6.75;;;11.80;96.10;;;;;;5069960;28;20043;-81
2022/05/15 03:31:39;;;;;;;12.02;6.32;;;11.80;96.10;;;;;;5068614;28;20490;-84
2022/05/15 03:34:07;;;;;;;13.88;6.82;;;11.80;96.20;;;;;;5067100;28;20024;-81
2022/05/15 03:36:33;;;;;;;14.15;6.80;;;11.70;96.10;;;;;;5064810;28;20512;-81
2022/05/15 03:38:59;;;;;;;14.65;6.03;;;11.80;96.20;;;;;;5067957;28;20025;-82
2022/05/15 03:41:25;;;;;;;12.52;6.47;;;11.70;96.20;;;;;;5069644;28;20036;-81
2022/05/15 03:43:50;;;;;;;14.20;6.32;;;11.70;96.30;;;;;;5066867;28;20575;-81
2022/05/15 03:46:16;;;;;;;10.90;6.20;;;11.70;96.30;;;;;;5066524;28;20029;-81
2022/05/15 03:48:41;;;;;;;11.13;6.32;;;11.70;96.30;;;;;;5068031;28;20118;-81
2022/05/15 03:51:07;;;;;;;11.38;6.00;;;11.70;96.30;;;;;;5065322;28;20032;-84
2022/05/15 03:53:33;;;;;;;12.20;6.75;;;11.70;96.30;;;;;;5063792;28;20025;-81
2022/05/15 03:55:59;;;;;;;14.63;7.35;;;11.70;96.30;;;;;;5068291;28;20033;-80
2022/05/15 03:58:26;;;;;;;15.30;7.25;;;11.70;96.50;;;;;;5068857;28;20079;-84
2022/05/15 04:00:52;;;;;;;9.93;5.97;;;11.70;96.50;;;;;;5066737;28;20150;-81
2022/05/15 04:03:18;;;;;;;13.45;6.60;;;11.70;96.40;;;;;;5069509;28;20055;-81
2022/05/15 04:05:44;;;;;;;12.30;6.00;;;11.70;96.40;;;;;;5067967;28;20119;-81
2022/05/15 04:08:10;;;;;;;12.05;7.25;;;11.70;96.40;;;;;;5061303;28;20112;-86
2022/05/15 04:10:36;;;;;;;10.70;5.90;;;11.80;96.40;;;;;;5066687;28;20032;-83
2022/05/15 04:13:02;;;;;;;11.98;6.00;;;11.80;96.40;;;;;;5064729;28;20487;-81
2022/05/15 04:15:27;;;;;;;16.90;6.47;;;11.80;96.40;;;;;;5064307;28;20031;-85
2022/05/15 04:17:53;;;;;;;13.52;7.95;;;11.80;96.40;;;;;;5066390;28;20528;-81
2022/05/15 04:20:22;;;;;;;12.43;6.70;;;11.90;96.30;;;;;;5056832;28;20108;-81
2022/05/15 04:22:48;;;;;;;10.75;5.93;;;11.90;96.30;;;;;;5068819;28;20147;-81
2022/05/15 04:25:14;;;;;;;14.98;6.03;;;11.90;96.40;;;;;;5072829;28;20490;-81
2022/05/15 04:27:40;;;;;;;11.77;5.93;;;11.90;96.40;;;;;;5064617;28;20028;-86
2022/05/15 04:30:07;;;;;;;10.10;5.57;;;11.90;96.40;;;;;;5071889;28;20418;-82
2022/05/15 04:32:33;;;;;;;14.18;6.43;;;12.00;96.40;;;;;;5071664;28;20063;-79
2022/05/15 04:34:58;;;;;;;13.80;5.20;;;12.00;96.40;;;;;;5071456;28;20048;-83
2022/05/15 04:37:24;;;;;;;9.88;5.70;;;12.10;96.40;;;;;;5072137;28;20043;-81
2022/05/15 04:39:50;;;;;;;12.88;5.65;;;12.10;96.40;;;;;;5066771;28;20029;-81
2022/05/15 04:42:16;;;;;;;10.77;6.85;;;12.20;96.40;;;;;;5063834;28;20029;-81
2022/05/15 04:44:41;;;;;;;9.88;4.85;;;12.20;96.40;;;;;;5073090;28;20032;-82
2022/05/15 04:47:07;;;;;;;13.55;6.40;;;12.30;96.40;;;;;;5071939;28;20020;-82
2022/05/15 04:49:32;;;;;;;8.55;4.53;;;12.30;96.40;;;;;;5071942;28;20474;-80
2022/05/15 04:51:58;;;;;;;8.60;4.63;;;12.40;96.40;;;;;;5071178;28;20038;-85
2022/05/15 04:54:24;;;;;;;10.38;5.25;;;12.40;96.40;;;;;;5062311;28;20017;-84
2022/05/15 04:56:49;;;;;;;10.27;5.35;;;12.50;96.30;;;;;;5059923;28;20493;-84
2022/05/15 04:59:15;;;;;;;7.45;4.70;;;12.50;96.20;;;;;;5070424;28;20052;-82
2022/05/15 05:01:41;;;;;;;8.18;5.05;;;12.60;96.30;;;;;;5070518;28;20032;-81
2022/05/15 05:04:06;;;;;;;9.38;4.47;;;12.60;96.20;;;;;;5069172;28;20017;-80
2022/05/15 05:06:32;;;;;;;8.98;3.97;;;12.70;96.10;;;;;;5066362;28;20041;-81
2022/05/15 05:08:58;;;;;;;6.80;3.63;;;12.80;95.90;;;;;;5073099;28;20020;-80
2022/05/15 05:11:23;;;;;;;9.32;4.72;;;12.80;95.80;;;;;;5064530;28;20122;-83
2022/05/15 05:13:49;;;;;;;9.15;4.35;;;12.90;95.80;;;;;;5071633;28;20105;-81
2022/05/15 05:16:15;;;;;;;8.15;4.30;;;12.90;95.70;;;;;;5066581;28;20037;-84
2022/05/15 05:18:41;;;;;;;9.93;4.22;;;13.00;95.60;;;;;;5063552;28;20036;-80
2022/05/15 05:21:07;;;;;;;10.50;3.92;;;13.00;95.60;;;;;;5070574;28;20025;-81
2022/05/15 05:23:32;;;;;;;8.02;4.28;;;13.10;95.60;;;;;;5069527;28;20025;-80
2022/05/15 05:26:00;;;;;;;7.18;3.72;;;13.10;95.50;;;;;;5064960;28;20495;-82
2022/05/15 05:28:26;;;;;;;14.75;4.47;;;13.20;95.30;;;;;;5068355;28;20141;-81
2022/05/15 05:30:53;;;;;;;12.10;5.28;;;13.30;95.00;;;;;;5054789;28;20021;-83
2022/05/15 05:33:21;;;;;;;12.70;3.67;;;13.30;94.60;;;;;;5056993;28;20429;-85
2022/05/15 05:35:46;;;;;;;9.23;4.35;;;13.40;94.20;;;;;;5063976;28;20036;-85
2022/05/15 05:38:12;;;;;;;11.40;3.35;;;13.40;94.10;;;;;;5059159;28;20033;-81
2022/05/15 05:40:38;;;;;;;8.73;3.97;;;13.50;94.10;;;;;;5065876;28;20037;-81
2022/05/15 05:43:03;;;;;;;9.05;4.03;;;13.60;94.00;;;;;;5065504;28;20025;-83
2022/05/15 05:45:29;;;;;;;8.73;3.80;;;13.70;93.60;;;;;;5067768;28;20044;-81
2022/05/15 05:47:55;;;;;;;7.85;3.22;;;13.80;93.50;;;;;;5059192;28;20031;-83
2022/05/15 05:50:23;;;;;;;11.02;3.75;;;13.80;93.10;;;;;;5064795;28;20032;-82
2022/05/15 05:52:49;;;;;;;9.32;3.05;;;13.90;93.60;;;;;;5064236;28;20025;-83
2022/05/15 05:55:17;;;;;;;7.38;3.00;;;14.00;93.00;;;;;;5069351;28;20043;-80
2022/05/15 05:57:43;;;;;;;7.75;3.38;;;14.10;93.00;;;;;;5065250;28;20025;-82
2022/05/15 06:00:14;;;;;;;9.73;3.65;;;14.20;93.00;;;;;;5065379;28;20028;-83
2022/05/15 06:02:39;;;;;;;11.82;3.85;;;14.30;92.70;;;;;;5062598;28;20417;-81
2022/05/15 06:05:05;;;;;;;6.85;2.58;;;14.30;92.00;;;;;;5064580;28;20040;-83
2022/05/15 06:07:33;;;;;;;10.27;3.58;;;14.30;91.80;;;;;;5064215;28;20024;-83
2022/05/15 06:10:00;;;;;;;5.55;2.78;;;14.40;92.10;;;;;;5066028;28;20036;-83
2022/05/15 06:12:25;;;;;;;7.80;2.50;;;14.40;92.20;;;;;;5058529;28;20070;-82
2022/05/15 06:14:52;;;;;;;7.15;3.05;;;14.50;92.10;;;;;;5064814;28;20107;-79
2022/05/15 06:17:23;;;;;;;7.78;2.83;;;14.60;91.80;;;;;;5057387;28;20115;-82
2022/05/15 06:19:49;;;;;;;8.32;2.60;;;14.80;91.60;;;;;;5064221;28;20070;-82
2022/05/15 06:22:14;;;;;;;8.52;2.35;;;14.90;91.50;;;;;;5063061;28;20021;-83
2022/05/15 06:24:40;;;;;;;5.07;2.40;;;14.90;91.30;;;;;;5060541;28;20032;-83
2022/05/15 06:27:06;;;;;;;8.90;2.92;;;15.00;91.20;;;;;;5063193;28;20036;-83
2022/05/15 06:29:31;;;;;;;9.68;2.80;;;15.10;91.10;;;;;;5066019;28;20394;-84
2022/05/15 06:31:58;;;;;;;10.70;2.60;;;15.10;91.10;;;;;;5068401;28;20032;-83
2022/05/15 06:34:23;;;;;;;5.85;2.88;;;15.20;91.10;;;;;;5064171;28;20048;-85
2022/05/15 06:36:49;;;;;;;5.90;2.20;;;15.30;90.80;;;;;;5064199;28;20031;-82
2022/05/15 06:39:14;;;;;;;4.95;2.40;;;15.50;90.90;;;;;;5067406;28;20106;-82
2022/05/15 06:41:40;;;;;;;5.75;1.77;;;15.50;90.40;;;;;;5062656;28;20024;-80
2022/05/15 06:44:06;;;;;;;6.55;2.95;;;15.50;90.10;;;;;;5064603;28;20101;-79
2022/05/15 06:46:32;;;;;;;5.72;2.47;;;15.70;89.90;;;;;;5065640;28;20116;-77
2022/05/15 06:48:58;;;;;;;8.30;2.20;;;15.80;89.80;;;;;;5066238;28;20031;-77
2022/05/15 06:51:23;;;;;;;9.60;2.47;;;15.90;88.70;;;;;;5059186;28;20037;-78
2022/05/15 06:53:50;;;;;;;9.00;3.00;;;16.00;88.00;;;;;;5050502;28;20491;-79
2022/05/15 06:59:02;;;;;;;6.40;2.75;;;16.30;88.20;;;;;;5059833;28;20039;-78
2022/05/15 07:01:28;;;;;;;10.00;2.75;;;16.40;87.90;;;;;;5069721;28;20025;-79
2022/05/15 07:03:54;;;;;;;8.23;2.75;;;16.50;87.50;;;;;;5070682;28;20482;-79
2022/05/15 07:06:19;;;;;;;9.23;2.78;;;16.70;86.80;;;;;;5069809;28;20039;-77
2022/05/15 07:08:45;;;;;;;9.48;2.20;;;16.70;86.60;;;;;;5070653;28;20044;-80
2022/05/15 07:11:12;;;;;;;7.13;2.63;;;16.80;85.60;;;;;;5069452;28;20036;-80
2022/05/15 07:13:38;;;;;;;8.77;2.05;;;16.90;84.80;;;;;;5060966;28;20017;-79
2022/05/15 07:16:03;;;;;;;6.80;2.35;;;17.00;85.50;;;;;;5068620;28;20050;-78
2022/05/15 07:18:29;;;;;;;6.43;2.30;;;17.20;85.00;;;;;;5062009;28;20028;-79
2022/05/15 07:20:54;;;;;;;8.52;1.95;;;17.30;84.50;;;;;;5063677;28;20035;-78
2022/05/15 07:23:21;;;;;;;9.48;2.83;;;17.50;85.40;;;;;;5058854;28;20082;-80
2022/05/15 07:25:48;;;;;;;5.38;2.35;;;17.70;85.10;;;;;;5054816;28;20040;-78
2022/05/15 07:28:14;;;;;;;6.07;3.03;;;17.90;83.90;;;;;;5050067;28;20029;-79
2022/05/15 07:30:39;;;;;;;8.45;2.13;;;18.10;83.70;;;;;;5056465;28;20047;-79
2022/05/15 07:33:06;;;;;;;10.63;3.17;;;18.20;84.30;;;;;;5060902;28;20032;-78
2022/05/15 07:35:31;;;;;;;9.05;2.15;;;18.30;82.80;;;;;;5068683;28;20017;-80
2022/05/15 07:37:57;;;;;;;8.55;2.92;;;18.50;81.60;;;;;;5063655;28;20548;-77
2022/05/15 07:40:22;;;;;;;4.57;2.38;;;18.60;79.90;;;;;;5067939;28;20024;-79
2022/05/15 07:42:49;;;;;;;7.60;2.15;;;18.70;81.30;;;;;;5069033;28;20040;-78
2022/05/15 07:45:15;;;;;;;5.63;1.73;;;18.90;81.50;;;;;;5061162;28;20036;-78
2022/05/15 07:47:41;;;;;;;5.82;2.00;;;18.90;76.80;;;;;;5069641;28;20064;-78
2022/05/15 07:50:08;;;;;;;6.65;2.20;;;19.00;81.10;;;;;;5068634;28;20052;-79
2022/05/15 07:52:34;;;;;;;6.93;2.25;;;19.10;79.30;;;;;;5068451;28;20020;-78
2022/05/15 07:54:59;;;;;;;5.75;2.20;;;19.30;79.30;;;;;;5059837;28;20063;-78
2022/05/15 07:57:25;;;;;;;6.95;2.22;;;19.40;79.30;;;;;;5071507;28;20441;-78
2022/05/15 07:59:52;;;;;;;8.07;2.22;;;19.60;78.30;;;;;;5074260;28;20093;-78
2022/05/15 08:02:18;;;;;;;5.28;1.60;;;19.70;77.10;;;;;;5073877;28;20029;-79
2022/05/15 08:10:12;;;;;;;9.38;2.20;;;19.90;75.90;;;;;;5073402;28;20035;-78
2022/05/15 08:12:39;;;;;;;4.78;1.98;;;20.00;74.70;;;;;;5066732;28;20416;-79
2022/05/15 08:15:07;;;;;;;7.95;1.67;;;20.10;73.60;;;;;;5068573;28;20119;-79
2022/05/15 08:17:33;;;;;;;4.97;1.52;;;20.10;74.30;;;;;;5064941;28;20024;-77
2022/05/15 08:25:26;;;;;;;6.95;1.85;;;20.50;71.60;;;;;;5061164;28;20052;-78
2022/05/15 08:27:52;;;;;;;14.60;1.70;;;20.50;72.30;;;;;;5060640;28;20025;-79
2022/05/15 08:30:20;;;;;;;7.07;2.05;;;20.60;70.00;;;;;;5052931;28;20474;-80
2022/05/15 08:32:46;;;;;;;4.70;1.55;;;20.50;69.70;;;;;;5053254;28;20124;-79
2022/05/15 08:35:12;;;;;;;6.95;1.42;;;20.70;70.10;;;;;;5054199;28;20425;-79
2022/05/15 08:37:38;;;;;;;8.38;1.60;;;20.90;69.20;;;;;;5064808;28;20039;-81
2022/05/15 08:40:05;;;;;;;5.07;1.52;;;20.90;69.50;;;;;;5068161;28;20029;-83
2022/05/15 08:42:48;;;;;;;5.70;1.65;;;21.10;70.60;;;;;;5067316;28;20032;-79
2022/05/15 08:45:16;;;;;;;8.73;1.25;;;21.30;71.80;;;;;;5063297;28;20040;-81
2022/05/15 08:47:44;;;;;;;6.13;1.38;;;21.50;69.70;;;;;;5071195;28;20029;-85
2022/05/15 08:50:24;;;;;;;4.65;1.42;;;21.60;67.90;;;;;;5066171;28;20039;-83
2022/05/15 08:52:57;;;;;;;6.10;1.73;;;21.70;68.10;;;;;;5069335;28;20032;-84
2022/05/15 08:55:42;;;;;;;6.00;1.42;;;21.80;69.10;;;;;;5067197;28;20051;-82
2022/05/15 08:58:15;;;;;;;5.57;1.52;;;21.80;68.60;;;;;;5071721;28;20025;-82
2022/05/15 09:00:43;;;;;;;5.38;1.80;;;21.90;68.50;;;;;;5059328;28;20102;-85
2022/05/15 09:03:18;;;;;;;6.18;1.75;;;21.70;66.70;;;;;;5070450;28;20780;-84
2022/05/15 09:06:08;;;;;;;4.97;1.55;;;21.70;68.60;;;;;;5054311;28;20116;-84
2022/05/15 09:08:52;;;;;;;4.75;1.30;;;21.90;70.30;;;;;;5064958;28;20024;-82
2022/05/15 09:12:03;;;;;;;5.35;1.42;;;22.20;69.10;;;;;;5069111;28;20468;-83
2022/05/15 09:14:40;;;;;;;6.18;1.77;;;22.40;67.60;;;;;;5052652;28;20037;-82
2022/05/15 09:17:27;;;;;;;8.27;2.15;;;22.20;67.40;;;;;;5068749;28;20044;-84
2022/05/15 09:19:55;;;;;;;8.85;2.35;;;22.10;66.80;;;;;;5066689;28;20024;-84
2022/05/15 09:22:25;;;;;;;9.38;1.10;;;22.10;66.90;;;;;;5071459;28;20039;-83
2022/05/15 09:24:51;;;;;;;11.68;2.58;;;22.00;66.20;;;;;;5068198;28;20032;-83
2022/05/15 09:27:23;;;;;;;5.93;1.77;;;21.60;67.70;;;;;;5070211;28;20046;-84
2022/05/15 09:30:10;;;;;;;7.57;1.98;;;21.40;70.00;;;;;;5068733;28;20043;-84
2022/05/15 09:32:39;;;;;;;10.45;2.13;;;21.40;67.90;;;;;;5061043;28;20098;-83
2022/05/15 09:35:17;;;;;;;8.43;2.17;;;21.40;67.50;;;;;;5065402;28;20047;-85
2022/05/15 09:43:35;;;;;;;7.70;2.33;;;21.70;68.70;;;;;;5063508;28;20540;-82
2022/05/15 09:46:12;;;;;;;7.47;1.88;;;22.00;67.70;;;;;;5068694;28;20036;-83
2022/05/15 09:48:54;;;;;;;6.03;1.70;;;22.30;66.40;;;;;;5061872;28;20107;-82
2022/05/15 09:51:43;;;;;;;;;;;22.60;68.20;;;;;;5069204;28;20027;-84
2022/05/15 09:54:26;;;;;;;7.03;1.60;;;22.90;64.40;;;;;;5074103;28;19909;-83
2022/05/15 09:57:08;;;;;;;6.07;1.90;;;23.00;64.80;;;;;;5067377;28;20109;-85
2022/05/15 09:59:34;;;;;;;8.50;1.83;;;23.00;65.10;;;;;;5070175;28;20115;-82
2022/05/15 10:02:00;;;;;;;7.95;1.67;;;22.90;64.50;;;;;;5068563;28;20095;-82
2022/05/15 10:04:32;;;;;;;7.55;2.13;;;22.70;63.60;;;;;;5066435;28;20035;-81
2022/05/15 10:07:02;;;;;;;7.60;1.67;;;22.70;64.00;;;;;;5069516;28;20071;-80
2022/05/15 10:09:35;;;;;;;7.65;2.58;;;22.50;64.20;;;;;;5070265;28;20039;-82
2022/05/15 10:12:06;;;;;;;7.78;2.08;;;22.30;64.80;;;;;;5070539;28;20033;-82
2022/05/15 10:14:43;;;;;;;5.53;1.60;;;22.40;65.70;;;;;;5069550;28;20035;-82
2022/05/15 10:17:11;;;;;;;6.28;2.08;;;22.60;65.80;;;;;;5064615;28;20094;-83
2022/05/15 10:19:52;;;;;;;7.38;2.13;;;22.90;64.50;;;;;;5065054;28;20025;-85
2022/05/15 10:22:36;;;;;;;8.93;2.22;;;23.10;62.70;;;;;;5066852;28;20182;-82
2022/05/15 10:25:40;;;;;;;6.38;2.33;;;23.30;62.00;;;;;;5064472;28;20474;-82
2022/05/15 10:28:30;;;;;;;7.22;1.75;;;23.60;65.00;;;;;;5077064;28;20052;-82
2022/05/15 10:31:13;;;;;;;9.38;1.95;;;23.90;63.20;;;;;;5061105;28;20040;-81
2022/05/15 10:33:41;;;;;;;4.75;1.38;;;24.10;62.60;;;;;;5062500;28;20044;-82
2022/05/15 10:36:23;;;;;;;5.10;2.10;;;24.10;59.90;;;;;;5061317;28;20086;-83
2022/05/15 10:39:17;;;;;;;8.90;2.28;;;24.10;61.10;;;;;;5068773;28;20075;-81
2022/05/15 10:42:13;;;;;;;7.88;1.80;;;23.90;59.50;;;;;;5065997;28;20548;-82
2022/05/15 10:45:04;;;;;;;5.80;2.20;;;23.70;61.90;;;;;;5070948;28;20148;-82
2022/05/15 10:47:43;;;;;;;5.65;1.67;;;23.70;61.10;;;;;;5054287;28;20058;-82
2022/05/15 10:50:47;;;;;;;8.23;2.55;;;23.80;59.60;;;;;;5065376;28;20020;-83
2022/05/15 10:59:46;;;;;;;5.18;1.70;;;24.40;60.20;;;;;;5070169;28;20090;-83
2022/05/15 11:02:30;;;;;;;6.18;1.30;;;24.50;59.00;;;;;;5069055;28;20031;-83
2022/05/15 11:05:06;;;;;;;8.05;1.88;;;24.30;55.70;;;;;;5069311;28;20040;-81
2022/05/15 11:07:47;;;;;;;13.38;2.20;;;24.40;56.90;;;;;;5069349;28;20033;-81
2022/05/15 11:10:48;;;;;;;4.60;1.83;;;24.20;56.50;;;;;;5068248;28;20039;-82
2022/05/15 11:13:17;;;;;;;3.25;1.23;;;24.10;57.70;;;;;;5062122;28;20121;-81
2022/05/15 11:16:05;;;;;;;5.45;1.90;;;24.10;58.30;;;;;;5068242;28;20032;-82
2022/05/15 11:18:55;;;;;;;10.52;2.58;;;24.30;59.00;;;;;;5070563;28;20048;-82
2022/05/15 11:21:54;;;;;;;6.00;1.00;;;24.30;56.00;;;;;;5067177;28;20025;-82
2022/05/15 11:24:55;;;;;;;8.98;2.58;;;24.30;54.00;;;;;;5050559;28;20482;-81
2022/05/15 11:27:29;;;;;;;5.20;1.30;;;24.20;56.10;;;;;;5045382;28;20036;-81
2022/05/15 11:29:59;;;;;;;23.63;2.25;;;24.10;57.00;;;;;;5069747;28;20029;-81
2022/05/15 11:32:44;;;;;;;10.32;2.10;;;24.20;57.60;;;;;;5067159;28;20044;-81
2022/05/15 11:35:16;;;;;;;8.38;1.65;;;24.10;58.10;;;;;;5069160;28;20033;-83
2022/05/15 11:37:44;;;;;;;7.47;1.63;;;24.20;60.60;;;;;;5064363;28;20024;-84
2022/05/15 11:40:31;;;;;;;9.65;1.60;;;24.40;59.50;;;;;;5064643;28;20287;-82
2022/05/15 11:42:57;;;;;;;7.18;1.65;;;24.60;58.10;;;;;;5062746;28;20433;-82
2022/05/15 11:45:32;;;;;;;7.75;1.63;;;24.80;58.20;;;;;;5066411;28;20028;-83
2022/05/15 11:48:16;;;;;;;7.90;1.55;;;25.00;57.10;;;;;;5066280;28;20139;-83
2022/05/15 11:50:54;;;;;;;5.68;1.52;;;25.00;58.20;;;;;;5064495;28;20535;-82
2022/05/15 11:53:53;;;;;;;8.10;1.45;;;25.30;58.90;;;;;;5063459;28;20041;-81
2022/05/15 11:56:23;;;;;;;5.10;1.50;;;25.40;54.80;;;;;;5063217;28;20035;-82
2022/05/15 11:58:57;;;;;;;5.63;1.50;;;25.40;55.00;;;;;;5063743;28;20021;-82
2022/05/15 12:01:25;;;;;;;7.32;1.67;;;25.60;55.60;;;;;;5068012;28;20032;-79
2022/05/15 12:03:56;;;;;;;7.95;2.15;;;25.40;55.10;;;;;;5061889;28;20382;-81
2022/05/15 12:06:28;;;;;;;4.80;1.48;;;25.30;54.10;;;;;;5064321;28;20041;-81
2022/05/15 12:09:15;;;;;;;9.20;1.77;;;25.10;56.50;;;;;;5058351;28;20078;-81
2022/05/15 12:11:43;;;;;;;4.63;2.03;;;25.20;57.40;;;;;;5079178;28;20451;-82
2022/05/15 12:14:26;;;;;;;12.45;3.30;;;25.30;55.20;;;;;;5066294;28;20025;-84
2022/05/15 12:17:00;;;;;;;6.38;1.67;;;25.50;56.60;;;;;;5067474;28;20056;-84
2022/05/15 12:19:40;;;;;;;11.18;2.47;;;25.50;55.80;;;;;;5068380;28;20039;-85
2022/05/15 12:22:10;;;;;;;11.40;1.95;;;25.60;54.40;;;;;;5066638;28;20125;-87
2022/05/15 12:24:39;;;;;;;5.35;1.60;;;25.60;54.40;;;;;;5060628;28;20061;-86
2022/05/15 12:27:20;;;;;;;10.75;2.55;;;25.40;55.20;;;;;;5051751;28;20032;-86
2022/05/15 12:30:04;;;;;;;6.90;2.33;;;25.50;54.70;;;;;;5057201;28;20029;-85
2022/05/15 12:32:34;;;;;;;6.38;1.17;;;25.50;53.90;;;;;;5067849;28;20028;-86
2022/05/15 12:35:00;;;;;;;5.35;1.15;;;25.50;55.50;;;;;;5070305;28;20024;-88
2022/05/15 12:37:31;;;;;;;6.80;1.75;;;25.70;53.20;;;;;;5067548;28;20147;-87
2022/05/15 12:40:00;;;;;;;5.35;1.33;;;25.90;53.60;;;;;;5069839;28;20024;-87
2022/05/15 12:42:34;;;;;;;5.32;1.40;;;26.10;55.90;;;;;;5069864;28;20112;-87
2022/05/15 12:45:15;;;;;;;5.07;1.42;;;26.30;55.10;;;;;;5063258;28;20487;-86
2022/05/15 12:47:42;;;;;;;3.78;1.05;;;26.40;54.40;;;;;;5065963;28;20123;-85
2022/05/15 12:50:20;;;;;;;8.40;1.85;;;26.50;53.80;;;;;;5067830;28;20043;-85
2022/05/15 12:52:59;;;;;;;5.40;2.15;;;26.30;51.90;;;;;;5065670;28;20032;-85
2022/05/15 12:55:33;;;;;;;4.72;1.17;;;25.80;52.80;;;;;;5069044;28;20135;-84
2022/05/15 12:58:05;;;;;;;5.10;1.58;;;25.80;56.30;;;;;;5071217;28;20466;-86
2022/05/15 13:00:42;;;;;;;5.85;1.50;;;26.00;54.20;;;;;;5070899;28;20032;-85
2022/05/15 13:03:11;;;;;;;9.65;2.05;;;26.20;54.00;;;;;;5071472;28;20382;-85
2022/05/15 13:05:49;;;;;;;6.35;1.58;;;26.40;52.90;;;;;;5071179;28;20470;-85
2022/05/15 13:08:15;;;;;;;4.95;1.20;;;26.50;52.70;;;;;;5072656;28;20028;-85
2022/05/15 13:10:56;;;;;;;5.88;1.42;;;26.60;51.30;;;;;;5071717;28;20032;-85
2022/05/15 13:13:34;;;;;;;7.15;1.80;;;26.40;51.60;;;;;;5067639;28;20056;-85
2022/05/15 13:16:01;;;;;;;2.95;1.48;;;26.10;51.50;;;;;;5064212;28;20025;-86
2022/05/15 13:18:30;;;;;;;13.23;2.30;;;26.00;52.40;;;;;;5069844;28;20456;-85
2022/05/15 13:21:01;;;;;;;5.90;1.98;;;26.00;52.90;;;;;;5068077;28;20064;-87
2022/05/15 13:23:40;;;;;;;6.13;1.27;;;26.00;50.80;;;;;;5067915;28;20040;-87
2022/05/15 13:26:08;;;;;;;5.80;1.65;;;26.10;52.10;;;;;;5064590;28;20045;-85